CEFAS Endeavour — VQHF3 — position and weather

sailwx.info

Track history (hours):
 
Tides and Currents Weather Stations Pressure Air Temp Water Temp Dewpoint Dewpoint Depression Visibility Wind Speed Wind Dir Waves Ship Positions

Oceanographic research ship CEFAS Endeavour (UK)

Detailed information on ship capabilities available from University of Delaware's Ocean Information Center.

Last reported at 2020-Jan-25 17:58 UTC. Time now 2020-Jan-25 18:21 UTC.
Position N 52°28' E 001°45'.

Length 74 m; draft 5.1 m.

Type: Other ship. MMSI: 235005270.

Date/timePositionNaut miles runAvg speedWind from/ knotsBaromVisibWave heightAir tempDewpointWater temp
2020-Jan-25 17:58N 52°28' E 001°45'0 0.0
2020-Jan-25 17:28N 52°28' E 001°45'0 0.0
2020-Jan-25 15:58N 52°28' E 001°45'0 0.0
2020-Jan-25 14:58N 52°28' E 001°45'0 0.0
2020-Jan-25 13:28N 52°28' E 001°45'0 0.0
2020-Jan-25 12:28N 52°28' E 001°45'0 0.0
2020-Jan-25 11:58N 52°28' E 001°45'0 0.0
2020-Jan-25 11:28N 52°28' E 001°45'0 0.0
2020-Jan-25 07:58N 52°28' E 001°45'0 0.0
2020-Jan-25 07:28N 52°28' E 001°45'0 0.0
2020-Jan-25 03:28N 52°28' E 001°45'0 0.0
2020-Jan-25 00:58N 52°28' E 001°45'0 0.0
2020-Jan-25 00:28N 52°28' E 001°45'0 0.0
2020-Jan-24 22:58N 52°28' E 001°45'0 0.0
2020-Jan-24 20:28N 52°28' E 001°45'0 0.0
2020-Jan-24 19:58N 52°28' E 001°45'0 0.0
2020-Jan-24 19:28N 52°28' E 001°45'0 0.0
2020-Jan-24 15:58N 52°28' E 001°45'0 0.0
2020-Jan-24 14:58N 52°28' E 001°45'0 0.0
2020-Jan-24 13:58N 52°28' E 001°45'0 0.0
2020-Jan-24 11:58N 52°28' E 001°45'0 0.0
2020-Jan-24 10:55N 52°28' E 001°45'0 0.0
2020-Jan-24 10:28N 52°28' E 001°45'0 0.0
2020-Jan-24 09:58N 52°28' E 001°45'0 0.0
2020-Jan-24 07:28N 52°28' E 001°45'0 0.0
2020-Jan-24 06:58N 52°28' E 001°45'0 0.0
2020-Jan-24 03:28N 52°28' E 001°45'0 0.0
2020-Jan-24 02:28N 52°28' E 001°45'0 0.0
2020-Jan-24 00:28N 52°28' E 001°45'0 0.0
2020-Jan-23 23:28N 52°28' E 001°45'0 0.0
2020-Jan-23 21:58N 52°28' E 001°45'0 0.0
2020-Jan-23 16:28N 52°28' E 001°45'0 0.0
2020-Jan-23 15:28N 52°28' E 001°45'0 0.0
2020-Jan-23 13:58N 52°28' E 001°45'0 0.0
2020-Jan-23 12:28N 52°28' E 001°45'0 0.0
2020-Jan-23 10:58N 52°28' E 001°45'0 0.0
2020-Jan-23 09:58N 52°28' E 001°45'0 0.0
2020-Jan-23 05:58N 52°28' E 001°45'0 0.0
2020-Jan-23 05:28N 52°28' E 001°45'0 0.0
2020-Jan-22 18:58N 52°28' E 001°45'25 6.2
2020-Jan-22 15:00N 52°31' E 002°25'2 0.4
2020-Jan-22 11:00N 52°32' E 002°28'1 0.4
2020-Jan-22 09:00N 52°31' E 002°27'0 0.6
2020-Jan-22 08:30N 52°31' E 002°28'5712.6
2020-Jan-22 04:01N 53°08' E 001°16'714.8
2020-Jan-22 03:31N 53°13' E 001°08'5014.0
2020-Jan-21 23:57N 53°55' E 000°21'217 7.3
2020-Jan-20 18:07N 57°21' W 001°38'1210.7
2020-Jan-20 17:00N 57°32' W 001°43'  
2020-Jan-17 14:43N 57°50' W 001°49'0 0.0
2020-Jan-17 11:30N 57°50' W 001°49'10 3.2
2020-Jan-17 08:28N 57°42' W 001°59'8 5.2
2020-Jan-17 07:00N 57°38' W 001°47'17 8.4
2020-Jan-17 05:00N 57°22' W 001°41'4 8.0
2020-Jan-17 04:30N 57°18' W 001°40'4 7.7
2020-Jan-17 04:00N 57°14' W 001°39'98 9.3
2020-Jan-16 17:31N 55°37' W 001°14'4 9.0
2020-Jan-16 17:00N 55°33' W 001°14'28 9.2
2020-Jan-16 14:01N 55°05' W 001°12'6 5.4
2020-Jan-16 12:50N 54°59' W 001°10'1 1.8
2020-Jan-16 12:25N 54°58' W 001°09'0 0.7
2020-Jan-16 11:53N 54°59' W 001°10'0 0.3
2020-Jan-16 10:56N 54°58' W 001°09'56 5.7
2020-Jan-16 01:10N 54°20' E 000°01'15 9.1
2020-Jan-15 23:30N 54°06' E 000°12'9 9.0
2020-Jan-15 22:30N 53°58' E 000°19'  
Track history (hours):
 
Tides and Currents Weather Stations Pressure Air Temp Water Temp Dewpoint Dewpoint Depression Visibility Wind Speed Wind Dir Waves Ship Positions

Oceanographic research ship CEFAS Endeavour (UK)

Detailed information on ship capabilities available from University of Delaware's Ocean Information Center.

Last reported at 2020-Jan-25 17:58 UTC. Time now 2020-Jan-25 18:21 UTC.
Position N 52°28' E 001°45'.

Length 74 m; draft 5.1 m.

Type: Other ship. MMSI: 235005270.

Date/timePositionNaut miles runAvg speedWind from/ knotsBaromVisibWave heightAir tempDewpointWater temp
2020-Jan-25 17:58N 52°28' E 001°45'0 0.0
2020-Jan-25 17:28N 52°28' E 001°45'0 0.0
2020-Jan-25 15:58N 52°28' E 001°45'0 0.0
2020-Jan-25 14:58N 52°28' E 001°45'0 0.0
2020-Jan-25 13:28N 52°28' E 001°45'0 0.0
2020-Jan-25 12:28N 52°28' E 001°45'0 0.0
2020-Jan-25 11:58N 52°28' E 001°45'0 0.0
2020-Jan-25 11:28N 52°28' E 001°45'0 0.0
2020-Jan-25 07:58N 52°28' E 001°45'0 0.0
2020-Jan-25 07:28N 52°28' E 001°45'0 0.0
2020-Jan-25 03:28N 52°28' E 001°45'0 0.0
2020-Jan-25 00:58N 52°28' E 001°45'0 0.0
2020-Jan-25 00:28N 52°28' E 001°45'0 0.0
2020-Jan-24 22:58N 52°28' E 001°45'0 0.0
2020-Jan-24 20:28N 52°28' E 001°45'0 0.0
2020-Jan-24 19:58N 52°28' E 001°45'0 0.0
2020-Jan-24 19:28N 52°28' E 001°45'0 0.0
2020-Jan-24 15:58N 52°28' E 001°45'0 0.0
2020-Jan-24 14:58N 52°28' E 001°45'0 0.0
2020-Jan-24 13:58N 52°28' E 001°45'0 0.0
2020-Jan-24 11:58N 52°28' E 001°45'0 0.0
2020-Jan-24 10:55N 52°28' E 001°45'0 0.0
2020-Jan-24 10:28N 52°28' E 001°45'0 0.0
2020-Jan-24 09:58N 52°28' E 001°45'0 0.0
2020-Jan-24 07:28N 52°28' E 001°45'0 0.0
2020-Jan-24 06:58N 52°28' E 001°45'0 0.0
2020-Jan-24 03:28N 52°28' E 001°45'0 0.0
2020-Jan-24 02:28N 52°28' E 001°45'0 0.0
2020-Jan-24 00:28N 52°28' E 001°45'0 0.0
2020-Jan-23 23:28N 52°28' E 001°45'0 0.0
2020-Jan-23 21:58N 52°28' E 001°45'0 0.0
2020-Jan-23 16:28N 52°28' E 001°45'0 0.0
2020-Jan-23 15:28N 52°28' E 001°45'0 0.0
2020-Jan-23 13:58N 52°28' E 001°45'0 0.0
2020-Jan-23 12:28N 52°28' E 001°45'0 0.0
2020-Jan-23 10:58N 52°28' E 001°45'0 0.0
2020-Jan-23 09:58N 52°28' E 001°45'0 0.0
2020-Jan-23 05:58N 52°28' E 001°45'0 0.0
2020-Jan-23 05:28N 52°28' E 001°45'0 0.0
2020-Jan-22 18:58N 52°28' E 001°45'25 6.2
2020-Jan-22 15:00N 52°31' E 002°25'2 0.4
2020-Jan-22 11:00N 52°32' E 002°28'1 0.4
2020-Jan-22 09:00N 52°31' E 002°27'0 0.6
2020-Jan-22 08:30N 52°31' E 002°28'5712.6
2020-Jan-22 04:01N 53°08' E 001°16'714.8
2020-Jan-22 03:31N 53°13' E 001°08'5014.0
2020-Jan-21 23:57N 53°55' E 000°21'217 7.3
2020-Jan-20 18:07N 57°21' W 001°38'1210.7
2020-Jan-20 17:00N 57°32' W 001°43'  
2020-Jan-17 14:43N 57°50' W 001°49'0 0.0
2020-Jan-17 11:30N 57°50' W 001°49'10 3.2
2020-Jan-17 08:28N 57°42' W 001°59'8 5.2
2020-Jan-17 07:00N 57°38' W 001°47'17 8.4
2020-Jan-17 05:00N 57°22' W 001°41'4 8.0
2020-Jan-17 04:30N 57°18' W 001°40'4 7.7
2020-Jan-17 04:00N 57°14' W 001°39'98 9.3
2020-Jan-16 17:31N 55°37' W 001°14'4 9.0
2020-Jan-16 17:00N 55°33' W 001°14'28 9.2
2020-Jan-16 14:01N 55°05' W 001°12'6 5.4
2020-Jan-16 12:50N 54°59' W 001°10'1 1.8
2020-Jan-16 12:25N 54°58' W 001°09'0 0.7
2020-Jan-16 11:53N 54°59' W 001°10'0 0.3
2020-Jan-16 10:56N 54°58' W 001°09'56 5.7
2020-Jan-16 01:10N 54°20' E 000°01'15 9.1
2020-Jan-15 23:30N 54°06' E 000°12'9 9.0
2020-Jan-15 22:30N 53°58' E 000°19'  

Dump ship's entire track history